Time;durP1;ratioP1;P1;durP2;ratioP2;P2;SDS_P1;SDS_P2;PMS_P1;PMS_P2;Temp;Humidity;BMP_temperature;BMP_pressure;BME280_temperature;BME280_humidity;BME280_pressure;Samples;Min_cycle;Max_cycle;Signal;HPM_P1;HPM_P2
2023/06/04 00:00:40;;;;;;;8.33;7.53;;;21.20;37.40;;;;;;20537;6836;284208;-78
2023/06/04 00:03:05;;;;;;;7.97;7.47;;;21.30;37.00;;;;;;20530;6836;283048;-77
2023/06/04 00:05:32;;;;;;;7.97;7.37;;;21.40;36.90;;;;;;20535;6836;337637;-77
2023/06/04 00:07:58;;;;;;;7.80;7.10;;;21.40;37.20;;;;;;20723;6836;121185;-77
2023/06/04 00:10:25;;;;;;;6.83;6.23;;;21.10;37.40;;;;;;20738;6836;117460;-77
2023/06/04 00:12:50;;;;;;;7.45;6.90;;;20.70;37.90;;;;;;20533;6836;279287;-77
2023/06/04 00:15:18;;;;;;;7.97;7.28;;;20.70;37.90;;;;;;20511;6836;295522;-77
2023/06/04 00:17:44;;;;;;;7.70;6.70;;;20.90;37.50;;;;;;20741;6836;121680;-78
2023/06/04 00:20:10;;;;;;;7.67;7.07;;;20.70;37.80;;;;;;20718;6836;121372;-78
2023/06/04 00:22:35;;;;;;;7.50;6.80;;;20.30;38.20;;;;;;20745;6836;117299;-78
2023/06/04 00:25:01;;;;;;;7.73;6.90;;;20.00;38.80;;;;;;20743;6836;120720;-78
2023/06/04 00:27:26;;;;;;;6.73;6.27;;;19.70;39.10;;;;;;20754;6836;116354;-78
2023/06/04 00:29:52;;;;;;;7.70;7.00;;;19.50;39.30;;;;;;20734;6836;119290;-77
2023/06/04 00:32:18;;;;;;;7.97;7.27;;;19.40;39.50;;;;;;20522;6836;278485;-78
2023/06/04 00:34:44;;;;;;;7.40;6.80;;;19.60;39.30;;;;;;20748;6836;117187;-78
2023/06/04 00:37:11;;;;;;;7.57;6.23;;;19.60;39.30;;;;;;20713;6836;117110;-78
2023/06/04 00:39:36;;;;;;;7.10;6.60;;;19.40;39.50;;;;;;20747;6836;117696;-78
2023/06/04 00:42:02;;;;;;;9.23;6.87;;;19.20;39.80;;;;;;20727;6836;117727;-78
2023/06/04 00:44:28;;;;;;;7.30;6.70;;;19.10;40.10;;;;;;20738;6836;117932;-77
2023/06/04 00:46:56;;;;;;;8.43;7.82;;;19.00;40.30;;;;;;20528;6836;317294;-78
2023/06/04 00:49:22;;;;;;;7.20;6.50;;;19.30;40.30;;;;;;20740;6836;117679;-78
2023/06/04 00:51:47;;;;;;;7.37;6.85;;;19.30;40.10;;;;;;20751;6836;117206;-78
2023/06/04 00:54:13;;;;;;;7.37;6.73;;;19.20;40.30;;;;;;20720;6834;118270;-78
2023/06/04 00:56:39;;;;;;;7.57;6.82;;;19.00;40.40;;;;;;20750;6835;117016;-79
2023/06/04 00:59:04;;;;;;;7.53;6.87;;;18.90;40.70;;;;;;20737;6835;117403;-78
2023/06/04 01:01:49;;;;;;;8.32;7.62;;;18.80;40.80;;;;;;20512;6836;279015;-78
2023/06/04 01:04:19;;;;;;;7.87;7.27;;;19.00;40.40;;;;;;20489;6836;313224;-78
2023/06/04 01:06:44;;;;;;;7.60;7.00;;;19.50;39.70;;;;;;20704;6836;118287;-78
2023/06/04 01:09:09;;;;;;;7.45;6.75;;;19.40;39.80;;;;;;20734;6836;117113;-78
2023/06/04 01:11:35;;;;;;;7.03;6.53;;;19.20;40.20;;;;;;20732;6836;117157;-78
2023/06/04 01:14:00;;;;;;;7.82;7.12;;;19.00;40.60;;;;;;20498;6836;308486;-78
2023/06/04 01:16:28;;;;;;;7.72;7.12;;;19.20;40.10;;;;;;20523;6836;278933;-78
2023/06/04 01:18:55;;;;;;;7.47;6.87;;;19.60;39.40;;;;;;20505;6836;308150;-78
2023/06/04 01:21:18;;;;;;;7.68;7.03;;;19.80;38.90;;;;;;20502;6836;280574;-77
2023/06/04 01:23:45;;;;;;;9.25;7.20;;;19.90;38.40;;;;;;20516;6836;282728;-78
2023/06/04 01:26:10;;;;;;;7.62;7.03;;;20.10;38.40;;;;;;20492;6836;305028;-77
2023/06/04 01:28:35;;;;;;;6.83;6.40;;;20.10;38.00;;;;;;20728;6836;119894;-78
2023/06/04 01:31:01;;;;;;;7.90;7.15;;;19.80;38.50;;;;;;20531;6836;292612;-79
2023/06/04 01:33:27;;;;;;;6.57;6.05;;;19.50;38.80;;;;;;20729;6836;117598;-78
2023/06/04 01:35:54;;;;;;;6.67;6.07;;;19.50;38.80;;;;;;20720;6836;117664;-78
2023/06/04 01:38:19;;;;;;;6.60;5.97;;;19.20;39.30;;;;;;20716;6836;117333;-78
2023/06/04 01:40:45;;;;;;;6.53;6.03;;;18.90;39.70;;;;;;20727;6836;117292;-77
2023/06/04 01:43:10;;;;;;;6.57;5.97;;;18.70;40.10;;;;;;20728;6836;117253;-78
2023/06/04 01:45:36;;;;;;;7.30;6.68;;;18.60;40.50;;;;;;20526;6836;300802;-77
2023/06/04 01:48:02;;;;;;;6.97;6.47;;;18.80;39.90;;;;;;20727;6836;123653;-78
2023/06/04 01:50:27;;;;;;;6.32;5.93;;;18.90;40.00;;;;;;20728;6836;119461;-78
2023/06/04 01:52:53;;;;;;;7.00;6.30;;;18.70;40.40;;;;;;20736;6836;117468;-77
2023/06/04 01:55:18;;;;;;;7.10;6.57;;;18.50;40.70;;;;;;20515;6836;309408;-78
2023/06/04 01:57:44;;;;;;;7.40;6.80;;;18.80;40.30;;;;;;20506;6836;315879;-78
2023/06/04 02:00:11;;;;;;;7.27;6.27;;;19.20;39.30;;;;;;20699;6836;119820;-79
2023/06/04 02:02:37;;;;;;;7.20;6.60;;;19.10;39.40;;;;;;20507;6836;308124;-78
2023/06/04 02:05:02;;;;;;;7.40;6.78;;;19.20;39.10;;;;;;20516;6836;279047;-77
2023/06/04 02:07:28;;;;;;;6.55;6.15;;;19.50;38.60;;;;;;20493;6834;342193;-78
2023/06/04 02:09:53;;;;;;;6.47;5.97;;;19.60;38.20;;;;;;20726;6835;122076;-77
2023/06/04 02:12:20;;;;;;;5.80;5.40;;;19.00;39.40;;;;;;20740;6835;117563;-78
2023/06/04 02:14:46;;;;;;;6.30;5.70;;;19.00;39.40;;;;;;20742;6836;120334;-79
2023/06/04 02:17:15;;;;;;;6.97;6.47;;;18.90;38.90;;;;;;20524;6836;279950;-78
2023/06/04 02:19:44;;;;;;;6.83;5.97;;;18.90;39.40;;;;;;20525;6836;312665;-78
2023/06/04 02:22:06;;;;;;;6.28;5.78;;;19.00;38.90;;;;;;20711;6836;118055;-77
2023/06/04 02:24:32;;;;;;;5.57;5.17;;;19.00;38.90;;;;;;20735;6836;119656;-78
2023/06/04 02:26:58;;;;;;;6.37;5.87;;;18.80;38.30;;;;;;20528;6836;285357;-77
2023/06/04 02:29:23;;;;;;;5.70;5.20;;;18.80;38.30;;;;;;20753;6836;67849;-78
2023/06/04 02:31:49;;;;;;;6.05;5.65;;;18.70;38.60;;;;;;20529;6836;288257;-78
2023/06/04 02:34:15;;;;;;;6.00;5.50;;;18.80;37.80;;;;;;20525;6836;309922;-78
2023/06/04 02:36:48;;;;;;;5.55;5.10;;;18.80;38.40;;;;;;20748;6836;117429;-77
2023/06/04 02:39:07;;;;;;;5.65;5.15;;;18.80;38.40;;;;;;20520;6836;308077;-78
2023/06/04 02:41:32;;;;;;;4.90;4.60;;;18.90;38.10;;;;;;20736;6836;117588;-78
2023/06/04 02:43:58;;;;;;;5.65;5.10;;;18.80;38.30;;;;;;20544;6836;278102;-78
2023/06/04 02:46:23;;;;;;;6.10;5.68;;;18.80;37.50;;;;;;20527;6836;278994;-77
2023/06/04 02:48:49;;;;;;;5.03;4.72;;;19.00;37.50;;;;;;20745;6836;117796;-78
2023/06/04 02:51:14;;;;;;;5.80;5.37;;;18.80;37.90;;;;;;20524;6836;307637;-79
2023/06/04 02:53:41;;;;;;;5.00;4.50;;;18.70;38.10;;;;;;20745;6836;117564;-78
2023/06/04 02:56:06;;;;;;;5.03;4.60;;;18.70;38.10;;;;;;20718;6836;117808;-79
2023/06/04 02:58:38;;;;;;;4.70;4.40;;;18.40;38.40;;;;;;20740;6836;117697;-78
2023/06/04 03:00:59;;;;;;;5.17;4.70;;;18.20;39.00;;;;;;20732;6836;119740;-78
2023/06/04 03:03:24;;;;;;;4.93;4.53;;;18.00;39.40;;;;;;20743;6836;117378;-78
2023/06/04 03:05:52;;;;;;;5.87;5.37;;;17.90;39.80;;;;;;20524;6836;309355;-78
2023/06/04 03:08:15;;;;;;;5.75;5.35;;;18.20;39.10;;;;;;20519;6836;310227;-77
2023/06/04 03:10:41;;;;;;;5.82;5.32;;;18.60;39.20;;;;;;20525;6836;337712;-82
2023/06/04 03:13:09;;;;;;;5.82;5.43;;;18.80;38.70;;;;;;20738;6836;117193;-77
2023/06/04 03:15:38;;;;;;;5.20;4.90;;;18.80;38.70;;;;;;20741;6836;123526;-78
2023/06/04 03:18:00;;;;;;;6.30;5.70;;;18.50;39.10;;;;;;20507;6834;313036;-78
2023/06/04 03:20:25;;;;;;;5.93;5.43;;;18.60;38.40;;;;;;20532;6835;308457;-78
2023/06/04 03:22:51;;;;;;;5.43;4.93;;;18.90;37.90;;;;;;20752;6835;117175;-77
2023/06/04 03:25:17;;;;;;;7.12;5.07;;;18.80;38.40;;;;;;20523;6836;310766;-78
2023/06/04 03:27:42;;;;;;;6.23;5.23;;;18.80;38.00;;;;;;20736;6836;117546;-77
2023/06/04 03:30:08;;;;;;;5.57;5.18;;;18.70;38.40;;;;;;20512;6836;285467;-78
2023/06/04 03:32:34;;;;;;;6.37;5.83;;;19.00;38.30;;;;;;20523;6836;308534;-77
2023/06/04 03:35:00;;;;;;;5.43;4.93;;;19.00;37.60;;;;;;20727;6836;117774;-80
2023/06/04 03:37:26;;;;;;;6.35;5.18;;;18.80;37.90;;;;;;20528;6836;278493;-79
2023/06/04 03:39:51;;;;;;;6.03;5.27;;;18.90;38.10;;;;;;20509;6836;281065;-77
2023/06/04 03:42:17;;;;;;;6.78;5.20;;;19.00;37.20;;;;;;20523;6836;293934;-78
2023/06/04 03:44:43;;;;;;;6.10;4.53;;;19.00;37.20;;;;;;20742;6836;117219;-77
2023/06/04 03:47:09;;;;;;;5.32;4.82;;;19.00;37.20;;;;;;20526;6836;340284;-78
2023/06/04 03:49:34;;;;;;;5.30;5.00;;;19.00;37.60;;;;;;20536;6836;337637;-78
2023/06/04 03:52:00;;;;;;;5.37;4.93;;;19.10;38.10;;;;;;20736;6836;117386;-78
2023/06/04 03:54:25;;;;;;;5.27;4.77;;;18.90;38.90;;;;;;20740;6836;117374;-77
2023/06/04 03:56:51;;;;;;;5.00;4.60;;;18.60;39.80;;;;;;20741;6836;117447;-80
2023/06/04 03:59:17;;;;;;;5.90;5.30;;;18.30;40.40;;;;;;20523;6836;313072;-77
2023/06/04 04:01:43;;;;;;;5.80;5.40;;;18.70;39.70;;;;;;20528;6836;313028;-78
2023/06/04 04:04:09;;;;;;;5.33;4.87;;;18.70;39.70;;;;;;20709;6836;119473;-79
2023/06/04 04:06:35;;;;;;;5.93;5.20;;;18.60;39.80;;;;;;20728;6836;117440;-79
2023/06/04 04:09:01;;;;;;;4.73;4.43;;;18.00;41.10;;;;;;20725;6836;117130;-79
2023/06/04 04:11:26;;;;;;;5.80;5.30;;;18.00;40.60;;;;;;20511;6836;313067;-77
2023/06/04 04:13:52;;;;;;;4.77;4.30;;;18.20;40.50;;;;;;20715;6836;117234;-79
2023/06/04 04:16:17;;;;;;;6.40;4.97;;;18.20;40.40;;;;;;20737;6834;117838;-77
2023/06/04 04:18:44;;;;;;;5.12;4.78;;;18.00;40.70;;;;;;20731;6834;117216;-78
2023/06/04 04:21:08;;;;;;;5.00;4.70;;;17.90;41.10;;;;;;20759;6834;117523;-78
2023/06/04 04:23:35;;;;;;;5.37;4.90;;;17.80;41.50;;;;;;20739;6834;117251;-77
2023/06/04 04:26:02;;;;;;;5.07;4.57;;;17.80;41.50;;;;;;20729;6834;120317;-79
2023/06/04 04:28:32;;;;;;;5.80;5.30;;;18.10;40.70;;;;;;20481;6849;316535;-79
2023/06/04 04:30:56;;;;;;;5.07;4.77;;;18.60;39.90;;;;;;20535;6833;277709;-79
2023/06/04 04:33:24;;;;;;;4.37;4.03;;;18.60;40.30;;;;;;20741;6834;118011;-79
2023/06/04 04:35:48;;;;;;;4.40;4.10;;;18.60;39.70;;;;;;20532;6834;285511;-77
2023/06/04 04:38:17;;;;;;;4.72;3.80;;;18.70;38.30;;;;;;20731;6834;119410;-77
2023/06/04 04:40:39;;;;;;;4.60;4.23;;;18.70;38.60;;;;;;20691;6849;117557;-78
2023/06/04 04:43:05;;;;;;;5.37;4.97;;;18.60;39.20;;;;;;20546;6834;278253;-78
2023/06/04 04:45:30;;;;;;;6.20;5.70;;;18.80;39.30;;;;;;20531;6834;306736;-78
2023/06/04 04:47:56;;;;;;;6.60;6.10;;;19.20;40.00;;;;;;20523;6834;278154;-80
2023/06/04 04:50:23;;;;;;;6.50;6.10;;;19.50;39.80;;;;;;20750;6834;120350;-80
2023/06/04 04:52:48;;;;;;;5.53;5.23;;;19.30;39.90;;;;;;20690;6849;117324;-79
2023/06/04 04:55:16;;;;;;;6.80;6.30;;;19.10;41.00;;;;;;20484;6849;337601;-78
2023/06/04 04:57:42;;;;;;;5.87;5.40;;;19.10;41.00;;;;;;20685;6849;117488;-77
2023/06/04 05:00:09;;;;;;;5.77;5.27;;;19.00;41.00;;;;;;20742;6834;121696;-78
2023/06/04 05:02:35;;;;;;;6.90;6.40;;;18.80;41.50;;;;;;20545;6834;340495;-78
2023/06/04 05:05:00;;;;;;;6.67;6.17;;;19.00;41.70;;;;;;20746;6834;117494;-78
2023/06/04 05:07:27;;;;;;;6.35;5.87;;;18.80;42.30;;;;;;20745;6834;117316;-78
2023/06/04 05:09:54;;;;;;;6.65;6.25;;;18.80;41.80;;;;;;20505;6834;340540;-79
2023/06/04 05:12:20;;;;;;;5.93;5.53;;;19.00;42.00;;;;;;20536;6834;332810;-77
2023/06/04 05:14:45;;;;;;;4.82;4.43;;;19.40;39.80;;;;;;20755;6834;117387;-78
2023/06/04 05:17:12;;;;;;;4.97;3.80;;;19.40;39.80;;;;;;20695;6849;119578;-80
2023/06/04 05:19:37;;;;;;;4.73;4.43;;;19.10;39.40;;;;;;20531;6834;308407;-78
2023/06/04 05:22:02;;;;;;;4.63;4.33;;;19.20;37.30;;;;;;20678;6849;118457;-78
2023/06/04 05:24:28;;;;;;;4.95;4.55;;;19.20;37.80;;;;;;20545;6834;286003;-79
2023/06/04 05:26:53;;;;;;;4.80;4.40;;;19.30;37.70;;;;;;20565;6834;278602;-77
2023/06/04 05:29:18;;;;;;;4.68;4.37;;;19.70;37.40;;;;;;20552;6849;277330;-77
2023/06/04 05:31:44;;;;;;;4.00;3.80;;;20.00;36.60;;;;;;20766;6834;116355;-79
2023/06/04 05:34:11;;;;;;;3.83;3.63;;;19.90;37.20;;;;;;20726;6834;120054;-77
2023/06/04 05:36:37;;;;;;;4.40;4.00;;;19.70;37.60;;;;;;20525;6834;309089;-77
2023/06/04 05:39:04;;;;;;;5.33;4.10;;;19.80;37.00;;;;;;20744;6834;120195;-77
2023/06/04 05:41:28;;;;;;;4.47;4.07;;;19.80;37.00;;;;;;20481;6847;308710;-78
2023/06/04 05:43:54;;;;;;;4.60;4.30;;;20.00;36.60;;;;;;20476;6849;281795;-77
2023/06/04 05:46:21;;;;;;;5.20;4.03;;;20.20;36.80;;;;;;20686;6852;119768;-78
2023/06/04 05:48:46;;;;;;;3.73;3.53;;;20.20;36.80;;;;;;20689;6852;117256;-77
2023/06/04 05:51:15;;;;;;;4.57;4.27;;;20.20;36.50;;;;;;20490;6847;316120;-77
2023/06/04 05:53:42;;;;;;;4.30;4.00;;;20.20;36.50;;;;;;20487;6848;282191;-77
2023/06/04 05:56:07;;;;;;;4.40;4.10;;;20.60;35.80;;;;;;20493;6848;312690;-79
2023/06/04 05:58:32;;;;;;;5.33;3.97;;;20.90;35.30;;;;;;20700;6848;117432;-78
2023/06/04 06:00:59;;;;;;;4.27;4.00;;;20.80;35.80;;;;;;20492;6848;278747;-77
2023/06/04 06:03:27;;;;;;;4.28;3.87;;;20.90;34.70;;;;;;20488;6848;341865;-78
2023/06/04 06:05:51;;;;;;;4.47;3.60;;;21.20;34.70;;;;;;20679;6848;120924;-77
2023/06/04 06:08:18;;;;;;;4.13;3.83;;;21.10;35.30;;;;;;20526;6841;277654;-78
2023/06/04 06:10:44;;;;;;;4.00;3.60;;;21.30;35.30;;;;;;20734;6841;123039;-78
2023/06/04 06:13:12;;;;;;;3.90;3.50;;;21.50;36.20;;;;;;20735;6841;123417;-78
2023/06/04 06:15:38;;;;;;;4.10;3.80;;;22.50;34.40;;;;;;20518;6841;309407;-77
2023/06/04 06:18:04;;;;;;;4.30;3.93;;;22.50;34.40;;;;;;20704;6841;117183;-79
2023/06/04 06:20:29;;;;;;;4.17;3.83;;;23.10;35.20;;;;;;20724;6841;118107;-78
2023/06/04 06:22:56;;;;;;;4.73;4.33;;;24.20;32.60;;;;;;20514;6841;307216;-78
2023/06/04 06:25:22;;;;;;;5.47;4.33;;;24.70;33.50;;;;;;20740;6834;117154;-79
2023/06/04 06:27:48;;;;;;;4.63;4.10;;;24.60;33.40;;;;;;20536;6834;296148;-78
2023/06/04 06:30:15;;;;;;;4.50;4.20;;;25.30;32.00;;;;;;20506;6834;307743;-79
2023/06/04 06:32:42;;;;;;;5.77;5.37;;;26.00;30.70;;;;;;20743;6834;117613;-80
2023/06/04 06:35:24;;;;;;;4.60;4.20;;;26.20;31.40;;;;;;20554;6834;278172;-79
2023/06/04 06:37:50;;;;;;;3.93;3.70;;;26.60;30.10;;;;;;20748;6834;118535;-79
2023/06/04 06:40:15;;;;;;;4.73;4.00;;;26.60;30.50;;;;;;20432;6834;311025;-79
2023/06/04 06:42:41;;;;;;;4.30;4.00;;;26.90;29.80;;;;;;20549;6834;307229;-79
2023/06/04 06:45:07;;;;;;;4.22;3.92;;;27.30;29.20;;;;;;20534;6834;277742;-79
2023/06/04 06:47:32;;;;;;;3.67;3.37;;;27.70;29.00;;;;;;20532;6834;277733;-79
2023/06/04 06:49:58;;;;;;;3.70;3.40;;;28.00;27.70;;;;;;20522;6834;279388;-77
2023/06/04 06:52:24;;;;;;;5.47;3.40;;;28.20;27.50;;;;;;20703;6849;123058;-83
2023/06/04 06:54:49;;;;;;;3.50;3.20;;;28.10;28.40;;;;;;20561;6834;278228;-84
2023/06/04 06:57:15;;;;;;;5.10;3.03;;;28.30;27.80;;;;;;20769;6834;117726;-78
2023/06/04 06:59:40;;;;;;;3.42;3.12;;;28.30;28.30;;;;;;20533;6834;307628;-76
2023/06/04 07:02:06;;;;;;;3.23;3.00;;;28.40;27.70;;;;;;20742;6834;118595;-76
2023/06/04 07:04:32;;;;;;;3.47;3.17;;;28.40;27.60;;;;;;20539;6834;307526;-78
2023/06/04 07:06:59;;;;;;;4.00;3.30;;;28.50;27.10;;;;;;20543;6834;277885;-77
2023/06/04 07:09:25;;;;;;;3.33;3.13;;;28.70;27.10;;;;;;20543;6834;303039;-74
2023/06/04 07:11:50;;;;;;;3.43;3.17;;;28.80;26.40;;;;;;20732;6834;117337;-77
2023/06/04 07:14:16;;;;;;;3.60;3.30;;;28.60;27.10;;;;;;20541;6834;280255;-75
2023/06/04 07:16:41;;;;;;;3.92;3.62;;;28.60;26.40;;;;;;20544;6834;277047;-76
2023/06/04 07:19:07;;;;;;;3.93;3.60;;;28.70;27.30;;;;;;20532;6834;277335;-77
2023/06/04 07:21:32;;;;;;;4.67;3.43;;;28.70;26.30;;;;;;20532;6838;307113;-76
2023/06/04 07:23:58;;;;;;;3.58;2.95;;;28.60;26.80;;;;;;20720;6838;120786;-76
2023/06/04 07:26:26;;;;;;;3.97;2.93;;;28.40;27.50;;;;;;20735;6838;123261;-77
2023/06/04 07:28:51;;;;;;;3.73;3.43;;;28.00;27.50;;;;;;20517;6838;311482;-77
2023/06/04 07:31:16;;;;;;;4.30;3.23;;;27.80;27.30;;;;;;20519;6838;278963;-77
2023/06/04 07:33:43;;;;;;;3.45;3.20;;;27.90;27.90;;;;;;20521;6838;277756;-78
2023/06/04 07:36:07;;;;;;;3.50;3.20;;;27.90;27.50;;;;;;20515;6838;310896;-78
2023/06/04 07:38:33;;;;;;;5.60;3.77;;;27.80;27.30;;;;;;20750;6838;118060;-77
2023/06/04 07:40:59;;;;;;;4.12;3.12;;;27.50;27.60;;;;;;20750;6838;117608;-77
2023/06/04 07:43:24;;;;;;;3.70;3.40;;;27.10;28.20;;;;;;20551;6834;281561;-77
2023/06/04 07:45:50;;;;;;;4.00;3.60;;;27.10;29.00;;;;;;20521;6834;307240;-78
2023/06/04 07:48:16;;;;;;;3.93;3.37;;;27.70;28.40;;;;;;20485;6849;307378;-77
2023/06/04 07:50:42;;;;;;;3.65;3.35;;;27.60;28.30;;;;;;20484;6849;308536;-77
2023/06/04 07:53:07;;;;;;;3.90;3.50;;;27.90;28.20;;;;;;20526;6834;311708;-77
2023/06/04 07:55:33;;;;;;;3.57;3.23;;;27.90;27.70;;;;;;20753;6834;119713;-77
2023/06/04 07:57:59;;;;;;;5.13;3.70;;;27.70;28.10;;;;;;20511;6834;307712;-77
2023/06/04 08:00:25;;;;;;;3.92;3.62;;;27.70;28.70;;;;;;20532;6834;281827;-77
2023/06/04 08:02:52;;;;;;;3.97;3.67;;;28.10;28.50;;;;;;20527;6834;341531;-77
2023/06/04 08:05:18;;;;;;;3.83;3.20;;;28.00;28.40;;;;;;20738;6833;117084;-77
2023/06/04 08:07:45;;;;;;;5.77;3.27;;;27.60;29.00;;;;;;20752;6834;119648;-77
2023/06/04 08:10:10;;;;;;;3.50;3.20;;;27.60;28.40;;;;;;20724;6834;117212;-77
2023/06/04 08:12:36;;;;;;;4.22;3.50;;;27.30;28.50;;;;;;20758;6834;119377;-77
2023/06/04 08:15:02;;;;;;;3.80;3.40;;;27.00;28.80;;;;;;20535;6834;312844;-77
2023/06/04 08:17:28;;;;;;;3.50;3.30;;;27.20;29.60;;;;;;20524;6834;307646;-79
2023/06/04 08:19:54;;;;;;;3.53;2.97;;;27.50;29.00;;;;;;20733;6834;117554;-78
2023/06/04 08:22:20;;;;;;;4.20;2.97;;;27.60;29.00;;;;;;20736;6834;117742;-77
2023/06/04 08:24:46;;;;;;;4.03;2.90;;;27.40;29.30;;;;;;20754;6834;119460;-77
2023/06/04 08:27:12;;;;;;;6.10;3.40;;;27.40;29.30;;;;;;20533;6834;278185;-76
2023/06/04 08:29:39;;;;;;;3.30;3.10;;;27.60;29.40;;;;;;20487;6851;284662;-76
2023/06/04 08:32:04;;;;;;;4.40;3.53;;;27.90;29.10;;;;;;20502;6834;277744;-78
2023/06/04 08:34:32;;;;;;;3.80;3.20;;;28.30;28.40;;;;;;20498;6849;309366;-77
2023/06/04 08:36:57;;;;;;;3.77;3.50;;;28.50;28.80;;;;;;20541;6834;278171;-76
2023/06/04 08:39:23;;;;;;;4.00;3.70;;;28.70;28.10;;;;;;20539;6834;281892;-77
2023/06/04 08:41:54;;;;;;;3.37;3.07;;;28.80;28.40;;;;;;20751;6834;117212;-76
2023/06/04 08:44:20;;;;;;;3.63;3.20;;;28.40;28.40;;;;;;20456;6834;118365;-79
2023/06/04 08:46:46;;;;;;;3.80;2.90;;;28.40;28.40;;;;;;20738;6834;120319;-80
2023/06/04 08:49:12;;;;;;;3.37;3.10;;;28.00;29.30;;;;;;20733;6834;119350;-77
2023/06/04 08:51:38;;;;;;;3.57;3.37;;;28.00;28.80;;;;;;20478;6849;307625;-77
2023/06/04 08:54:10;;;;;;;4.13;3.07;;;28.30;29.20;;;;;;20700;6843;117436;-78
2023/06/04 08:56:35;;;;;;;5.17;3.40;;;28.50;28.90;;;;;;20468;6848;300055;-76
2023/06/04 08:59:01;;;;;;;3.57;3.27;;;28.80;28.80;;;;;;20704;6848;117326;-78
2023/06/04 09:01:26;;;;;;;4.37;3.20;;;28.90;28.50;;;;;;20698;6848;117680;-76
2023/06/04 09:03:53;;;;;;;4.47;3.20;;;29.00;27.10;;;;;;20470;6848;337695;-78
2023/06/04 09:06:18;;;;;;;3.70;3.40;;;29.00;27.10;;;;;;20498;6848;278995;-78
2023/06/04 09:08:44;;;;;;;3.60;3.30;;;29.20;26.80;;;;;;20500;6848;307726;-80
2023/06/04 09:11:11;;;;;;;4.33;3.30;;;29.40;27.00;;;;;;20696;6848;120845;-80
2023/06/04 09:13:37;;;;;;;3.43;3.13;;;29.20;27.20;;;;;;20691;6848;119392;-79
2023/06/04 09:16:02;;;;;;;4.10;3.70;;;29.00;27.40;;;;;;20464;6846;279097;-77
2023/06/04 09:18:29;;;;;;;4.15;3.53;;;29.10;27.00;;;;;;20708;6847;119883;-82
2023/06/04 09:21:01;;;;;;;3.50;3.30;;;29.10;27.00;;;;;;20692;6850;117330;-79
2023/06/04 09:23:27;;;;;;;4.17;3.50;;;29.00;27.20;;;;;;20488;6834;307836;-79
2023/06/04 09:25:53;;;;;;;7.23;3.83;;;29.00;26.90;;;;;;20518;6834;311435;-76
2023/06/04 09:28:19;;;;;;;4.20;3.47;;;29.30;27.20;;;;;;20742;6834;118024;-81
2023/06/04 09:30:52;;;;;;;3.90;3.60;;;29.40;27.00;;;;;;20527;6834;308127;-79
2023/06/04 09:33:17;;;;;;;57.55;52.90;;;29.40;26.80;;;;;;20480;6849;325627;-77
2023/06/04 09:35:42;;;;;;;3.57;3.37;;;29.70;26.50;;;;;;20754;6834;117525;-79
2023/06/04 09:38:08;;;;;;;4.47;3.60;;;29.60;26.50;;;;;;20452;6842;307920;-78
2023/06/04 09:40:37;;;;;;;3.53;3.33;;;29.60;26.40;;;;;;20714;6842;66364;-79
2023/06/04 09:43:03;;;;;;;5.50;3.50;;;29.50;26.90;;;;;;20506;6842;312277;-77
2023/06/04 09:45:35;;;;;;;3.83;3.60;;;29.70;26.90;;;;;;20715;6842;117641;-78
2023/06/04 09:48:01;;;;;;;3.90;3.50;;;29.80;26.70;;;;;;20488;6842;307124;-76
2023/06/04 09:50:33;;;;;;;4.07;3.70;;;29.80;26.50;;;;;;20719;6842;121683;-77
2023/06/04 09:52:57;;;;;;;3.53;3.23;;;29.70;26.50;;;;;;20699;6848;117205;-76
2023/06/04 09:55:25;;;;;;;3.53;3.30;;;29.20;26.80;;;;;;20694;6848;117546;-76
2023/06/04 09:57:49;;;;;;;3.63;3.33;;;29.20;26.80;;;;;;20707;6848;117414;-77
2023/06/04 10:00:22;;;;;;;4.10;3.60;;;29.10;27.30;;;;;;20488;6848;292605;-77
2023/06/04 10:02:47;;;;;;;4.23;3.50;;;29.50;27.10;;;;;;20699;6848;119350;-77
2023/06/04 10:05:16;;;;;;;3.20;3.00;;;29.50;27.10;;;;;;20692;6848;117442;-76
2023/06/04 10:07:45;;;;;;;4.00;3.70;;;29.60;27.30;;;;;;20492;6848;300457;-76
2023/06/04 10:10:11;;;;;;;5.13;3.53;;;29.90;26.60;;;;;;20679;6848;119528;-75
2023/06/04 10:12:37;;;;;;;3.33;3.13;;;30.10;26.40;;;;;;20683;6848;119744;-76
2023/06/04 10:15:03;;;;;;;3.80;3.50;;;30.10;26.70;;;;;;20483;6848;278904;-75
2023/06/04 10:17:29;;;;;;;3.83;3.53;;;30.10;26.40;;;;;;20476;6848;304493;-75
2023/06/04 10:19:54;;;;;;;4.77;3.57;;;30.40;25.30;;;;;;20681;6848;119962;-76
2023/06/04 10:22:20;;;;;;;3.90;3.70;;;30.20;25.40;;;;;;20478;6848;297613;-76
2023/06/04 10:24:46;;;;;;;3.93;3.50;;;30.20;26.00;;;;;;20700;6848;123249;-76
2023/06/04 10:27:12;;;;;;;5.10;3.80;;;30.20;25.90;;;;;;20479;6846;312408;-76
2023/06/04 10:29:37;;;;;;;4.77;4.37;;;30.40;26.20;;;;;;20486;6847;306398;-75
2023/06/04 10:32:03;;;;;;;3.60;3.37;;;30.50;25.20;;;;;;20694;6847;119822;-75
2023/06/04 10:34:30;;;;;;;4.40;4.05;;;30.40;25.30;;;;;;20482;6847;284600;-76
2023/06/04 10:36:55;;;;;;;5.83;3.80;;;30.40;25.70;;;;;;20475;6847;315118;-75
2023/06/04 10:39:29;;;;;;;4.07;3.77;;;30.60;25.60;;;;;;20690;6848;119870;-75
2023/06/04 10:42:02;;;;;;;4.37;3.97;;;30.60;25.90;;;;;;20680;6848;117732;-78
2023/06/04 10:44:27;;;;;;;4.60;4.20;;;30.50;25.70;;;;;;20474;6848;308972;-76
2023/06/04 10:46:53;;;;;;;4.47;4.17;;;30.50;25.70;;;;;;20680;6848;117317;-76
2023/06/04 10:49:25;;;;;;;4.67;4.20;;;30.50;25.80;;;;;;20715;6848;117594;-76
2023/06/04 10:51:52;;;;;;;4.90;4.60;;;30.60;25.60;;;;;;20465;6848;312716;-76
2023/06/04 10:54:27;;;;;;;4.60;4.20;;;30.50;25.50;;;;;;20705;6848;117600;-79
2023/06/04 10:56:49;;;;;;;4.93;4.53;;;30.60;25.70;;;;;;20675;6848;117094;-76
2023/06/04 10:59:15;;;;;;;4.40;4.10;;;30.40;25.40;;;;;;20700;6848;119322;-76
2023/06/04 11:01:41;;;;;;;5.23;4.60;;;30.20;25.30;;;;;;20693;6848;117250;-77
2023/06/04 11:04:07;;;;;;;6.10;4.50;;;29.90;25.20;;;;;;20456;6848;312773;-75
2023/06/04 11:06:32;;;;;;;4.62;4.32;;;30.10;25.70;;;;;;20447;6848;298178;-76
2023/06/04 11:09:05;;;;;;;4.43;4.13;;;30.40;25.40;;;;;;20702;6848;123057;-78
2023/06/04 11:11:30;;;;;;;4.47;4.10;;;30.50;25.70;;;;;;20692;6848;119637;-76
2023/06/04 11:13:58;;;;;;;5.77;4.70;;;30.40;26.00;;;;;;20679;6848;119193;-78
2023/06/04 11:16:23;;;;;;;6.40;4.90;;;30.30;25.90;;;;;;20426;6848;308573;-76
2023/06/04 11:18:57;;;;;;;4.90;4.40;;;30.60;25.40;;;;;;20703;6848;117209;-76
2023/06/04 11:21:22;;;;;;;4.43;4.13;;;30.60;25.40;;;;;;20700;6848;117333;-77
2023/06/04 11:23:48;;;;;;;5.57;4.10;;;30.50;25.40;;;;;;20697;6848;117073;-75
2023/06/04 11:26:14;;;;;;;5.10;4.60;;;30.50;25.20;;;;;;20470;6848;312623;-75
2023/06/04 11:28:44;;;;;;;5.78;4.70;;;30.50;25.20;;;;;;20495;6848;280658;-75
2023/06/04 11:31:08;;;;;;;5.60;4.70;;;30.70;25.30;;;;;;20493;6848;318242;-75
2023/06/04 11:33:42;;;;;;;4.93;4.47;;;30.80;25.10;;;;;;20688;6849;117195;-74
2023/06/04 11:36:07;;;;;;;4.80;4.37;;;30.60;25.10;;;;;;20694;6843;119467;-73
2023/06/04 11:38:33;;;;;;;5.97;4.70;;;30.60;25.10;;;;;;20510;6841;335421;-77
2023/06/04 11:40:59;;;;;;;5.00;4.70;;;30.70;25.30;;;;;;20493;6847;283283;-72
2023/06/04 11:43:26;;;;;;;5.53;4.87;;;30.90;24.70;;;;;;20690;6850;116935;-74
2023/06/04 11:45:51;;;;;;;4.90;4.60;;;30.90;25.10;;;;;;20731;6834;117539;-73
2023/06/04 11:48:17;;;;;;;5.07;4.43;;;30.70;25.00;;;;;;20742;6834;123134;-71
2023/06/04 11:50:43;;;;;;;4.80;4.40;;;30.10;25.30;;;;;;20751;6834;123353;-71
2023/06/04 11:53:08;;;;;;;6.07;5.13;;;30.20;25.30;;;;;;20538;6834;278152;-70
2023/06/04 11:55:36;;;;;;;5.30;4.90;;;30.30;25.40;;;;;;20530;6834;337271;-73
2023/06/04 11:58:02;;;;;;;6.10;4.65;;;30.60;24.50;;;;;;20512;6834;281879;-73
2023/06/04 12:00:28;;;;;;;5.90;5.27;;;30.80;24.70;;;;;;20528;6834;314852;-73
2023/06/04 12:02:56;;;;;;;5.72;5.18;;;31.00;24.30;;;;;;20529;6834;307135;-72
2023/06/04 12:05:23;;;;;;;5.23;4.63;;;30.90;24.50;;;;;;20701;6849;119983;-71
2023/06/04 12:07:53;;;;;;;4.63;4.33;;;30.90;24.50;;;;;;20724;6834;119733;-71
2023/06/04 12:10:19;;;;;;;5.25;4.78;;;30.60;24.60;;;;;;20538;6834;336379;-74
2023/06/04 12:12:45;;;;;;;5.37;4.97;;;30.70;25.10;;;;;;20512;6842;287059;-74
2023/06/04 12:15:11;;;;;;;6.55;5.95;;;30.60;24.50;;;;;;20502;6842;308102;-73
2023/06/04 12:17:37;;;;;;;5.73;5.23;;;30.80;24.70;;;;;;20501;6843;307588;-72
2023/06/04 12:20:02;;;;;;;5.33;4.93;;;30.90;24.00;;;;;;20699;6843;117302;-72
2023/06/04 12:22:27;;;;;;;5.13;4.83;;;30.80;24.10;;;;;;20506;6843;278493;-72
2023/06/04 12:24:56;;;;;;;5.40;4.90;;;30.60;24.90;;;;;;20689;6848;122998;-72
2023/06/04 12:27:25;;;;;;;5.20;4.83;;;30.50;24.80;;;;;;20480;6848;308219;-73
2023/06/04 12:30:07;;;;;;;5.10;4.63;;;30.60;24.90;;;;;;20690;6848;119838;-73